sensor_id;sensor_type;location;lat;lon;timestamp;pressure;altitude;pressure_sealevel;temperature;humidity
74675;BME280;63200;48.810;12.352;2023-04-06T00:00:45;97782.19;;;-3.19;70.49
74675;BME280;63200;48.810;12.352;2023-04-06T00:03:11;97779.72;;;-3.21;70.63
74675;BME280;63200;48.810;12.352;2023-04-06T00:05:36;97772.34;;;-3.25;70.39
74675;BME280;63200;48.810;12.352;2023-04-06T00:08:01;97785.22;;;-3.22;70.53
74675;BME280;63200;48.810;12.352;2023-04-06T00:10:27;97771.13;;;-3.23;70.62
74675;BME280;63200;48.810;12.352;2023-04-06T00:12:52;97778.84;;;-3.28;70.49
74675;BME280;63200;48.810;12.352;2023-04-06T00:15:19;97781.09;;;-3.25;70.67
74675;BME280;63200;48.810;12.352;2023-04-06T00:17:44;97782.69;;;-3.30;70.22
74675;BME280;63200;48.810;12.352;2023-04-06T00:20:10;97778.66;;;-3.26;70.68
74675;BME280;63200;48.810;12.352;2023-04-06T00:22:35;97778.38;;;-3.31;70.51
74675;BME280;63200;48.810;12.352;2023-04-06T00:25:01;97755.94;;;-3.50;70.52
74675;BME280;63200;48.810;12.352;2023-04-06T00:27:26;97783.44;;;-3.37;71.18
74675;BME280;63200;48.810;12.352;2023-04-06T00:29:52;97779.16;;;-3.53;70.15
74675;BME280;63200;48.810;12.352;2023-04-06T00:32:17;97792.81;;;-3.56;70.01
74675;BME280;63200;48.810;12.352;2023-04-06T00:34:42;97783.88;;;-3.70;70.34
74675;BME280;63200;48.810;12.352;2023-04-06T00:37:08;97779.22;;;-3.67;70.14
74675;BME280;63200;48.810;12.352;2023-04-06T00:39:33;97770.91;;;-3.79;70.64
74675;BME280;63200;48.810;12.352;2023-04-06T00:41:58;97785.13;;;-3.65;71.23
74675;BME280;63200;48.810;12.352;2023-04-06T00:44:25;97786.34;;;-3.68;71.49
74675;BME280;63200;48.810;12.352;2023-04-06T00:46:51;97784.53;;;-3.67;71.78
74675;BME280;63200;48.810;12.352;2023-04-06T00:49:17;97787.78;;;-3.65;71.58
74675;BME280;63200;48.810;12.352;2023-04-06T00:51:42;97777.47;;;-3.75;70.83
74675;BME280;63200;48.810;12.352;2023-04-06T00:54:07;97774.84;;;-3.75;71.47
74675;BME280;63200;48.810;12.352;2023-04-06T00:56:33;97772.97;;;-3.75;71.04
74675;BME280;63200;48.810;12.352;2023-04-06T00:58:58;97776.75;;;-3.69;71.27
74675;BME280;63200;48.810;12.352;2023-04-06T01:01:24;97776.44;;;-3.59;71.86
74675;BME280;63200;48.810;12.352;2023-04-06T01:03:50;97778.97;;;-3.51;71.45
74675;BME280;63200;48.810;12.352;2023-04-06T01:06:15;97757.34;;;-3.70;70.68
74675;BME280;63200;48.810;12.352;2023-04-06T01:08:41;97784.59;;;-3.61;70.34
74675;BME280;63200;48.810;12.352;2023-04-06T01:11:07;97773.78;;;-3.59;70.65
74675;BME280;63200;48.810;12.352;2023-04-06T01:13:32;97778.03;;;-3.65;70.68
74675;BME280;63200;48.810;12.352;2023-04-06T01:15:58;97779.03;;;-3.66;70.21
74675;BME280;63200;48.810;12.352;2023-04-06T01:18:27;97775.44;;;-3.73;70.64
74675;BME280;63200;48.810;12.352;2023-04-06T01:20:52;97776.13;;;-3.86;70.49
74675;BME280;63200;48.810;12.352;2023-04-06T01:23:17;97776.66;;;-3.91;70.60
74675;BME280;63200;48.810;12.352;2023-04-06T01:25:43;97781.06;;;-3.98;71.19
74675;BME280;63200;48.810;12.352;2023-04-06T01:28:08;97775.97;;;-3.99;71.41
74675;BME280;63200;48.810;12.352;2023-04-06T01:30:33;97779.03;;;-3.96;71.51
74675;BME280;63200;48.810;12.352;2023-04-06T01:32:59;97772.94;;;-3.96;71.20
74675;BME280;63200;48.810;12.352;2023-04-06T01:35:26;97770.81;;;-4.01;70.69
74675;BME280;63200;48.810;12.352;2023-04-06T01:37:52;97776.69;;;-4.06;70.83
74675;BME280;63200;48.810;12.352;2023-04-06T01:40:17;97769.81;;;-4.00;71.08
74675;BME280;63200;48.810;12.352;2023-04-06T01:42:42;97733.53;;;-4.14;71.06
74675;BME280;63200;48.810;12.352;2023-04-06T01:45:08;97756.09;;;-3.89;71.09
74675;BME280;63200;48.810;12.352;2023-04-06T01:47:33;97766.44;;;-3.94;70.09
74675;BME280;63200;48.810;12.352;2023-04-06T01:49:58;97758.13;;;-4.06;70.16
74675;BME280;63200;48.810;12.352;2023-04-06T01:52:24;97766.63;;;-4.10;70.54
74675;BME280;63200;48.810;12.352;2023-04-06T01:54:49;97760.41;;;-4.18;71.16
74675;BME280;63200;48.810;12.352;2023-04-06T01:57:14;97761.03;;;-4.30;70.37
74675;BME280;63200;48.810;12.352;2023-04-06T01:59:40;97754.56;;;-4.43;70.66
74675;BME280;63200;48.810;12.352;2023-04-06T02:02:05;97761.13;;;-4.39;71.18
74675;BME280;63200;48.810;12.352;2023-04-06T02:04:30;97755.03;;;-4.39;71.81
74675;BME280;63200;48.810;12.352;2023-04-06T02:06:56;97753.81;;;-4.37;71.07
74675;BME280;63200;48.810;12.352;2023-04-06T02:09:21;97729.50;;;-4.55;70.57
74675;BME280;63200;48.810;12.352;2023-04-06T02:11:46;97762.13;;;-4.40;71.70
74675;BME280;63200;48.810;12.352;2023-04-06T02:14:12;97758.31;;;-4.37;71.31
74675;BME280;63200;48.810;12.352;2023-04-06T02:16:37;97721.09;;;-4.59;71.42
74675;BME280;63200;48.810;12.352;2023-04-06T02:19:02;97748.34;;;-4.35;71.79
74675;BME280;63200;48.810;12.352;2023-04-06T02:21:28;97743.50;;;-4.46;70.96
74675;BME280;63200;48.810;12.352;2023-04-06T02:23:53;97762.88;;;-4.31;70.54
74675;BME280;63200;48.810;12.352;2023-04-06T02:26:19;97736.53;;;-4.47;70.52
74675;BME280;63200;48.810;12.352;2023-04-06T02:28:45;97720.91;;;-4.57;70.86
74675;BME280;63200;48.810;12.352;2023-04-06T02:31:10;97752.00;;;-4.36;70.66
74675;BME280;63200;48.810;12.352;2023-04-06T02:33:36;97739.66;;;-4.44;71.15
74675;BME280;63200;48.810;12.352;2023-04-06T02:36:02;97760.31;;;-4.39;71.08
74675;BME280;63200;48.810;12.352;2023-04-06T02:38:27;97762.94;;;-4.54;70.51
74675;BME280;63200;48.810;12.352;2023-04-06T02:40:52;97758.34;;;-4.75;70.56
74675;BME280;63200;48.810;12.352;2023-04-06T02:43:19;97752.84;;;-4.89;70.94
74675;BME280;63200;48.810;12.352;2023-04-06T02:45:44;97766.00;;;-4.80;71.35
74675;BME280;63200;48.810;12.352;2023-04-06T02:48:10;97757.41;;;-4.82;71.30
74675;BME280;63200;48.810;12.352;2023-04-06T02:50:35;97733.91;;;-5.00;71.45
74675;BME280;63200;48.810;12.352;2023-04-06T02:53:00;97727.22;;;-5.11;71.51
74675;BME280;63200;48.810;12.352;2023-04-06T02:55:26;97762.44;;;-4.88;71.95
74675;BME280;63200;48.810;12.352;2023-04-06T02:57:51;97761.88;;;-4.83;71.97
74675;BME280;63200;48.810;12.352;2023-04-06T03:00:16;97764.00;;;-4.78;72.30
74675;BME280;63200;48.810;12.352;2023-04-06T03:02:42;97759.19;;;-4.75;71.77
74675;BME280;63200;48.810;12.352;2023-04-06T03:05:07;97651.28;;;-5.49;72.08
74675;BME280;63200;48.810;12.352;2023-04-06T03:07:32;97763.41;;;-4.89;72.02
74675;BME280;63200;48.810;12.352;2023-04-06T03:09:58;97725.09;;;-5.16;71.95
74675;BME280;63200;48.810;12.352;2023-04-06T03:12:23;97766.16;;;-4.97;71.98
74675;BME280;63200;48.810;12.352;2023-04-06T03:14:48;97757.38;;;-4.97;71.99
74675;BME280;63200;48.810;12.352;2023-04-06T03:17:13;97760.56;;;-5.02;71.37
74675;BME280;63200;48.810;12.352;2023-04-06T03:19:39;97743.16;;;-5.20;71.48
74675;BME280;63200;48.810;12.352;2023-04-06T03:22:05;97761.63;;;-5.11;71.64
74675;BME280;63200;48.810;12.352;2023-04-06T03:24:30;97765.19;;;-5.04;71.57
74675;BME280;63200;48.810;12.352;2023-04-06T03:26:56;97766.72;;;-5.10;71.60
74675;BME280;63200;48.810;12.352;2023-04-06T03:29:21;97770.16;;;-5.01;72.19
74675;BME280;63200;48.810;12.352;2023-04-06T03:31:47;97781.50;;;-4.92;72.34
74675;BME280;63200;48.810;12.352;2023-04-06T03:34:12;97770.09;;;-4.93;72.24
74675;BME280;63200;48.810;12.352;2023-04-06T03:36:37;97775.19;;;-4.91;71.85
74675;BME280;63200;48.810;12.352;2023-04-06T03:39:03;97752.50;;;-5.09;72.06
74675;BME280;63200;48.810;12.352;2023-04-06T03:41:28;97786.16;;;-4.94;72.12
74675;BME280;63200;48.810;12.352;2023-04-06T03:43:53;97785.16;;;-4.93;71.95
74675;BME280;63200;48.810;12.352;2023-04-06T03:46:19;97744.09;;;-5.12;72.52
74675;BME280;63200;48.810;12.352;2023-04-06T03:48:45;97744.44;;;-5.15;72.08
74675;BME280;63200;48.810;12.352;2023-04-06T03:51:10;97780.75;;;-5.01;71.93
74675;BME280;63200;48.810;12.352;2023-04-06T03:53:36;97760.91;;;-5.28;71.68
74675;BME280;63200;48.810;12.352;2023-04-06T03:56:02;97774.81;;;-5.26;72.13
74675;BME280;63200;48.810;12.352;2023-04-06T03:58:27;97789.53;;;-5.24;71.85
74675;BME280;63200;48.810;12.352;2023-04-06T04:00:52;97791.69;;;-5.27;71.97
74675;BME280;63200;48.810;12.352;2023-04-06T04:03:18;97793.47;;;-5.20;71.89
74675;BME280;63200;48.810;12.352;2023-04-06T04:05:43;97795.38;;;-5.13;72.56
74675;BME280;63200;48.810;12.352;2023-04-06T04:08:08;97781.72;;;-5.25;71.84
74675;BME280;63200;48.810;12.352;2023-04-06T04:10:34;97799.03;;;-5.14;71.96
74675;BME280;63200;48.810;12.352;2023-04-06T04:12:59;97790.31;;;-5.23;71.97
74675;BME280;63200;48.810;12.352;2023-04-06T04:15:24;97787.50;;;-5.22;71.76
74675;BME280;63200;48.810;12.352;2023-04-06T04:17:50;97777.63;;;-5.28;72.23
74675;BME280;63200;48.810;12.352;2023-04-06T04:20:15;97798.03;;;-5.13;72.14
74675;BME280;63200;48.810;12.352;2023-04-06T04:22:41;97804.22;;;-5.21;72.02
74675;BME280;63200;48.810;12.352;2023-04-06T04:25:07;97806.09;;;-5.30;71.86
74675;BME280;63200;48.810;12.352;2023-04-06T04:27:33;97803.00;;;-5.42;71.55
74675;BME280;63200;48.810;12.352;2023-04-06T04:29:58;97811.63;;;-5.48;72.07
74675;BME280;63200;48.810;12.352;2023-04-06T04:32:23;97805.34;;;-5.47;72.13
74675;BME280;63200;48.810;12.352;2023-04-06T04:34:52;97798.22;;;-5.46;72.43
74675;BME280;63200;48.810;12.352;2023-04-06T04:37:17;97806.47;;;-5.41;72.50
74675;BME280;63200;48.810;12.352;2023-04-06T04:39:43;97812.59;;;-5.41;72.25
74675;BME280;63200;48.810;12.352;2023-04-06T04:42:08;97812.78;;;-5.42;72.42
74675;BME280;63200;48.810;12.352;2023-04-06T04:44:34;97813.59;;;-5.42;72.13
74675;BME280;63200;48.810;12.352;2023-04-06T04:46:59;97812.78;;;-5.42;72.80
74675;BME280;63200;48.810;12.352;2023-04-06T04:49:24;97811.06;;;-5.35;73.10
74675;BME280;63200;48.810;12.352;2023-04-06T04:51:50;97811.88;;;-5.26;73.22
74675;BME280;63200;48.810;12.352;2023-04-06T04:54:17;97809.16;;;-5.18;73.42
74675;BME280;63200;48.810;12.352;2023-04-06T04:56:42;97817.22;;;-5.11;72.45
74675;BME280;63200;48.810;12.352;2023-04-06T04:59:08;97819.97;;;-5.05;72.35
74675;BME280;63200;48.810;12.352;2023-04-06T05:01:33;97811.84;;;-5.03;72.57
74675;BME280;63200;48.810;12.352;2023-04-06T05:03:58;97819.63;;;-5.02;72.41
74675;BME280;63200;48.810;12.352;2023-04-06T05:06:23;97812.44;;;-4.93;72.01
74675;BME280;63200;48.810;12.352;2023-04-06T05:08:50;97817.84;;;-4.86;71.97
74675;BME280;63200;48.810;12.352;2023-04-06T05:11:15;97816.28;;;-4.72;72.08
74675;BME280;63200;48.810;12.352;2023-04-06T05:13:41;97816.69;;;-4.60;71.37
74675;BME280;63200;48.810;12.352;2023-04-06T05:16:06;97817.97;;;-4.56;71.23
74675;BME280;63200;48.810;12.352;2023-04-06T05:18:31;97795.28;;;-4.59;71.50
74675;BME280;63200;48.810;12.352;2023-04-06T05:20:57;97814.78;;;-4.37;70.47
74675;BME280;63200;48.810;12.352;2023-04-06T05:23:22;97821.00;;;-4.29;70.83
74675;BME280;63200;48.810;12.352;2023-04-06T05:25:47;97816.47;;;-4.21;69.99
74675;BME280;63200;48.810;12.352;2023-04-06T05:28:13;97796.59;;;-4.40;69.93
74675;BME280;63200;48.810;12.352;2023-04-06T05:30:40;97821.28;;;-4.24;69.96
74675;BME280;63200;48.810;12.352;2023-04-06T05:33:05;97825.03;;;-4.19;69.90
74675;BME280;63200;48.810;12.352;2023-04-06T05:35:31;97828.78;;;-4.13;69.50
74675;BME280;63200;48.810;12.352;2023-04-06T05:37:56;97832.28;;;-4.12;69.59
74675;BME280;63200;48.810;12.352;2023-04-06T05:40:21;97834.47;;;-4.01;69.69
74675;BME280;63200;48.810;12.352;2023-04-06T05:42:47;97824.69;;;-3.86;69.48
74675;BME280;63200;48.810;12.352;2023-04-06T05:45:12;97826.50;;;-3.71;69.08
74675;BME280;63200;48.810;12.352;2023-04-06T05:47:42;97831.78;;;-3.56;68.83
74675;BME280;63200;48.810;12.352;2023-04-06T05:50:08;97800.34;;;-3.59;67.92
74675;BME280;63200;48.810;12.352;2023-04-06T05:52:33;97800.22;;;-3.14;67.75
74675;BME280;63200;48.810;12.352;2023-04-06T05:54:58;97830.41;;;-2.01;65.94
74675;BME280;63200;48.810;12.352;2023-04-06T05:57:24;97833.38;;;-1.40;62.27
74675;BME280;63200;48.810;12.352;2023-04-06T05:59:49;97829.81;;;-1.06;61.35
74675;BME280;63200;48.810;12.352;2023-04-06T06:02:14;97827.81;;;-0.37;59.71
74675;BME280;63200;48.810;12.352;2023-04-06T06:04:40;97831.72;;;-0.12;58.15
74675;BME280;63200;48.810;12.352;2023-04-06T06:07:05;97831.09;;;-0.01;58.34
74675;BME280;63200;48.810;12.352;2023-04-06T06:09:31;97833.50;;;0.21;57.63
74675;BME280;63200;48.810;12.352;2023-04-06T06:11:56;97843.84;;;0.69;57.26
74675;BME280;63200;48.810;12.352;2023-04-06T06:14:21;97808.13;;;0.57;56.93
74675;BME280;63200;48.810;12.352;2023-04-06T06:16:47;97796.09;;;1.18;54.90
74675;BME280;63200;48.810;12.352;2023-04-06T06:19:12;97823.66;;;1.94;52.93
74675;BME280;63200;48.810;12.352;2023-04-06T06:21:37;97834.16;;;2.21;51.92
74675;BME280;63200;48.810;12.352;2023-04-06T06:24:03;97820.59;;;2.53;51.59
74675;BME280;63200;48.810;12.352;2023-04-06T06:26:28;97838.19;;;2.49;51.68
74675;BME280;63200;48.810;12.352;2023-04-06T06:28:53;97828.75;;;3.26;50.66
74675;BME280;63200;48.810;12.352;2023-04-06T06:31:19;97828.78;;;3.92;49.04
74675;BME280;63200;48.810;12.352;2023-04-06T06:33:48;97812.41;;;4.70;46.94
74675;BME280;63200;48.810;12.352;2023-04-06T06:36:19;97826.09;;;4.80;46.75
74675;BME280;63200;48.810;12.352;2023-04-06T06:38:44;97825.81;;;5.68;46.18
74675;BME280;63200;48.810;12.352;2023-04-06T06:41:10;97824.50;;;5.71;45.14
74675;BME280;63200;48.810;12.352;2023-04-06T06:43:36;97804.31;;;5.39;45.22
74675;BME280;63200;48.810;12.352;2023-04-06T06:46:01;97804.03;;;6.43;43.95
74675;BME280;63200;48.810;12.352;2023-04-06T06:48:27;97820.41;;;6.58;43.60
74675;BME280;63200;48.810;12.352;2023-04-06T06:50:52;97815.56;;;7.92;41.61
74675;BME280;63200;48.810;12.352;2023-04-06T06:53:17;97826.94;;;7.94;40.38
74675;BME280;63200;48.810;12.352;2023-04-06T06:55:43;97824.59;;;9.04;38.85
74675;BME280;63200;48.810;12.352;2023-04-06T06:58:09;97823.88;;;9.34;38.53
74675;BME280;63200;48.810;12.352;2023-04-06T07:00:34;97808.44;;;9.65;36.37
74675;BME280;63200;48.810;12.352;2023-04-06T07:03:00;97829.31;;;10.11;34.33
74675;BME280;63200;48.810;12.352;2023-04-06T07:05:25;97824.97;;;9.54;35.03
74675;BME280;63200;48.810;12.352;2023-04-06T07:07:51;97831.75;;;10.28;35.73
74675;BME280;63200;48.810;12.352;2023-04-06T07:10:17;97827.56;;;10.88;35.43
74675;BME280;63200;48.810;12.352;2023-04-06T07:12:42;97826.31;;;10.23;35.47
74675;BME280;63200;48.810;12.352;2023-04-06T07:15:08;97824.69;;;10.48;35.91
74675;BME280;63200;48.810;12.352;2023-04-06T07:17:33;97824.47;;;9.98;36.74
74675;BME280;63200;48.810;12.352;2023-04-06T07:19:58;97811.13;;;10.07;36.21
74675;BME280;63200;48.810;12.352;2023-04-06T07:22:23;97831.84;;;10.99;36.54
74675;BME280;63200;48.810;12.352;2023-04-06T07:24:49;97825.78;;;11.17;35.48
74675;BME280;63200;48.810;12.352;2023-04-06T07:27:15;97826.06;;;11.16;35.56
74675;BME280;63200;48.810;12.352;2023-04-06T07:29:41;97825.97;;;10.76;36.87
74675;BME280;63200;48.810;12.352;2023-04-06T07:32:07;97833.47;;;11.00;37.06
74675;BME280;63200;48.810;12.352;2023-04-06T07:34:32;97817.44;;;11.04;35.75
74675;BME280;63200;48.810;12.352;2023-04-06T07:36:57;97823.81;;;11.28;34.15
74675;BME280;63200;48.810;12.352;2023-04-06T07:39:23;97845.13;;;11.06;35.57
74675;BME280;63200;48.810;12.352;2023-04-06T07:41:48;97840.75;;;11.10;34.59
74675;BME280;63200;48.810;12.352;2023-04-06T07:44:14;97840.41;;;10.61;34.72
74675;BME280;63200;48.810;12.352;2023-04-06T07:46:39;97837.19;;;10.23;36.10
74675;BME280;63200;48.810;12.352;2023-04-06T07:49:05;97840.72;;;10.39;36.08
74675;BME280;63200;48.810;12.352;2023-04-06T07:51:30;97835.00;;;10.30;34.19
74675;BME280;63200;48.810;12.352;2023-04-06T07:53:56;97834.19;;;10.30;34.67
74675;BME280;63200;48.810;12.352;2023-04-06T07:56:21;97834.22;;;10.40;34.58
74675;BME280;63200;48.810;12.352;2023-04-06T07:58:46;97834.47;;;10.13;36.15
74675;BME280;63200;48.810;12.352;2023-04-06T08:01:12;97824.41;;;10.60;35.62
74675;BME280;63200;48.810;12.352;2023-04-06T08:03:38;97834.09;;;10.81;35.30
74675;BME280;63200;48.810;12.352;2023-04-06T08:06:04;97798.22;;;11.34;35.06
74675;BME280;63200;48.810;12.352;2023-04-06T08:08:29;97828.78;;;11.61;33.79
74675;BME280;63200;48.810;12.352;2023-04-06T08:10:55;97830.13;;;12.03;33.43
74675;BME280;63200;48.810;12.352;2023-04-06T08:13:21;97832.56;;;12.34;31.53
74675;BME280;63200;48.810;12.352;2023-04-06T08:15:46;97831.63;;;12.73;30.42
74675;BME280;63200;48.810;12.352;2023-04-06T08:18:12;97831.22;;;12.31;31.30
74675;BME280;63200;48.810;12.352;2023-04-06T08:20:38;97835.88;;;12.55;31.66
74675;BME280;63200;48.810;12.352;2023-04-06T08:23:03;97833.66;;;13.06;31.09
74675;BME280;63200;48.810;12.352;2023-04-06T08:25:29;97812.59;;;12.92;28.63
74675;BME280;63200;48.810;12.352;2023-04-06T08:27:54;97834.09;;;12.70;28.81
74675;BME280;63200;48.810;12.352;2023-04-06T08:30:20;97824.31;;;12.93;29.52
74675;BME280;63200;48.810;12.352;2023-04-06T08:32:46;97836.19;;;13.02;29.22
74675;BME280;63200;48.810;12.352;2023-04-06T08:35:11;97824.50;;;13.21;27.93
74675;BME280;63200;48.810;12.352;2023-04-06T08:37:37;97823.53;;;12.39;27.90
74675;BME280;63200;48.810;12.352;2023-04-06T08:40:02;97824.06;;;12.41;28.47
74675;BME280;63200;48.810;12.352;2023-04-06T08:42:32;97802.66;;;12.58;28.12
74675;BME280;63200;48.810;12.352;2023-04-06T08:44:57;97822.63;;;13.59;27.36
74675;BME280;63200;48.810;12.352;2023-04-06T08:47:23;97817.66;;;13.23;28.47
74675;BME280;63200;48.810;12.352;2023-04-06T08:49:49;97820.25;;;12.90;27.46
74675;BME280;63200;48.810;12.352;2023-04-06T08:52:17;97811.75;;;12.19;29.47
74675;BME280;63200;48.810;12.352;2023-04-06T08:54:43;97794.03;;;12.22;29.79
74675;BME280;63200;48.810;12.352;2023-04-06T08:57:08;97821.06;;;12.91;29.50
74675;BME280;63200;48.810;12.352;2023-04-06T08:59:34;97824.09;;;13.52;28.93
74675;BME280;63200;48.810;12.352;2023-04-06T09:02:03;97827.16;;;13.26;28.88
74675;BME280;63200;48.810;12.352;2023-04-06T09:04:28;97822.94;;;13.14;27.50
74675;BME280;63200;48.810;12.352;2023-04-06T09:06:54;97828.19;;;13.30;28.79
74675;BME280;63200;48.810;12.352;2023-04-06T09:09:19;97828.44;;;13.53;29.37
74675;BME280;63200;48.810;12.352;2023-04-06T09:11:49;97815.38;;;12.87;29.90
74675;BME280;63200;48.810;12.352;2023-04-06T09:14:15;97784.50;;;12.73;28.75
74675;BME280;63200;48.810;12.352;2023-04-06T09:16:43;97817.44;;;13.39;28.06
74675;BME280;63200;48.810;12.352;2023-04-06T09:19:09;97816.41;;;13.92;27.23
74675;BME280;63200;48.810;12.352;2023-04-06T09:21:35;97819.69;;;13.37;26.47
74675;BME280;63200;48.810;12.352;2023-04-06T09:24:02;97818.22;;;13.44;27.51
74675;BME280;63200;48.810;12.352;2023-04-06T09:26:28;97816.75;;;13.28;26.96
74675;BME280;63200;48.810;12.352;2023-04-06T09:28:54;97812.22;;;13.42;26.85
74675;BME280;63200;48.810;12.352;2023-04-06T09:31:27;97808.50;;;13.90;25.35
74675;BME280;63200;48.810;12.352;2023-04-06T09:33:53;97809.38;;;13.09;27.56
74675;BME280;63200;48.810;12.352;2023-04-06T09:36:19;97769.91;;;13.45;27.65
74675;BME280;63200;48.810;12.352;2023-04-06T09:38:59;97804.16;;;14.36;24.17
74675;BME280;63200;48.810;12.352;2023-04-06T09:44:01;97796.69;;;14.56;25.01
74675;BME280;63200;48.810;12.352;2023-04-06T09:46:27;97789.69;;;14.49;25.37
74675;BME280;63200;48.810;12.352;2023-04-06T09:48:52;97794.88;;;13.33;25.24
74675;BME280;63200;48.810;12.352;2023-04-06T09:51:18;97792.97;;;13.72;26.63
74675;BME280;63200;48.810;12.352;2023-04-06T09:53:49;97795.13;;;13.75;27.12
74675;BME280;63200;48.810;12.352;2023-04-06T09:56:20;97789.34;;;14.09;26.07
74675;BME280;63200;48.810;12.352;2023-04-06T09:58:50;97784.47;;;14.81;23.68
74675;BME280;63200;48.810;12.352;2023-04-06T10:01:20;97788.84;;;13.36;24.65
74675;BME280;63200;48.810;12.352;2023-04-06T10:04:09;97790.50;;;14.36;24.69
74675;BME280;63200;48.810;12.352;2023-04-06T10:06:38;97779.72;;;14.73;24.00
74675;BME280;63200;48.810;12.352;2023-04-06T10:09:06;97785.31;;;13.55;24.82
74675;BME280;63200;48.810;12.352;2023-04-06T10:11:33;97780.66;;;13.17;25.72
74675;BME280;63200;48.810;12.352;2023-04-06T10:13:59;97757.00;;;14.16;24.57
74675;BME280;63200;48.810;12.352;2023-04-06T10:16:25;97785.06;;;13.32;26.70
74675;BME280;63200;48.810;12.352;2023-04-06T10:19:00;97778.38;;;13.62;23.13
74675;BME280;63200;48.810;12.352;2023-04-06T10:21:27;97746.31;;;14.62;25.01
74675;BME280;63200;48.810;12.352;2023-04-06T10:24:01;97768.50;;;15.61;23.62
74675;BME280;63200;48.810;12.352;2023-04-06T10:26:27;97770.75;;;15.23;22.82
74675;BME280;63200;48.810;12.352;2023-04-06T10:28:52;97760.84;;;15.72;20.58
74675;BME280;63200;48.810;12.352;2023-04-06T10:31:25;97765.09;;;15.19;24.19
74675;BME280;63200;48.810;12.352;2023-04-06T10:34:01;97760.00;;;15.26;21.26
74675;BME280;63200;48.810;12.352;2023-04-06T10:36:31;97763.16;;;15.20;22.99
74675;BME280;63200;48.810;12.352;2023-04-06T10:38:58;97745.53;;;15.12;22.39
74675;BME280;63200;48.810;12.352;2023-04-06T10:41:32;97751.34;;;15.33;22.16
74675;BME280;63200;48.810;12.352;2023-04-06T10:43:57;97755.22;;;14.95;22.00
74675;BME280;63200;48.810;12.352;2023-04-06T10:46:29;97746.31;;;15.86;24.39
74675;BME280;63200;48.810;12.352;2023-04-06T10:48:55;97747.81;;;16.23;20.64
74675;BME280;63200;48.810;12.352;2023-04-06T10:51:25;97752.44;;;15.69;22.40
74675;BME280;63200;48.810;12.352;2023-04-06T10:53:53;97749.19;;;15.44;23.21
74675;BME280;63200;48.810;12.352;2023-04-06T10:56:21;97755.28;;;15.63;23.16
74675;BME280;63200;48.810;12.352;2023-04-06T10:58:48;97752.56;;;15.63;23.29
74675;BME280;63200;48.810;12.352;2023-04-06T11:01:19;97750.50;;;15.46;23.25
74675;BME280;63200;48.810;12.352;2023-04-06T11:03:53;97755.97;;;15.46;23.39
74675;BME280;63200;48.810;12.352;2023-04-06T11:06:22;97750.16;;;14.89;23.52
74675;BME280;63200;48.810;12.352;2023-04-06T11:08:49;97744.41;;;13.88;25.08
74675;BME280;63200;48.810;12.352;2023-04-06T11:11:17;97739.53;;;14.45;24.23
74675;BME280;63200;48.810;12.352;2023-04-06T11:13:54;97742.28;;;15.46;23.75
74675;BME280;63200;48.810;12.352;2023-04-06T11:16:21;97737.69;;;14.96;23.55
74675;BME280;63200;48.810;12.352;2023-04-06T11:18:53;97743.97;;;14.97;25.85
74675;BME280;63200;48.810;12.352;2023-04-06T11:21:20;97731.19;;;15.88;24.42
74675;BME280;63200;48.810;12.352;2023-04-06T11:26:44;97724.00;;;16.01;20.86
74675;BME280;63200;48.810;12.352;2023-04-06T11:29:11;97701.13;;;15.52;23.38
74675;BME280;63200;48.810;12.352;2023-04-06T11:31:41;97719.34;;;16.91;21.99
74675;BME280;63200;48.810;12.352;2023-04-06T11:34:12;97714.53;;;17.23;22.54
74675;BME280;63200;48.810;12.352;2023-04-06T11:36:40;97687.91;;;17.23;19.52
74675;BME280;63200;48.810;12.352;2023-04-06T11:39:06;97702.38;;;15.91;21.70
74675;BME280;63200;48.810;12.352;2023-04-06T11:41:32;97682.81;;;15.29;22.71
74675;BME280;63200;48.810;12.352;2023-04-06T11:44:01;97700.91;;;15.03;24.19
74675;BME280;63200;48.810;12.352;2023-04-06T11:46:28;97707.72;;;15.73;23.32
74675;BME280;63200;48.810;12.352;2023-04-06T11:48:58;97692.44;;;15.49;22.88
74675;BME280;63200;48.810;12.352;2023-04-06T11:51:23;97693.22;;;15.50;22.59
74675;BME280;63200;48.810;12.352;2023-04-06T11:53:49;97691.56;;;14.25;24.23
74675;BME280;63200;48.810;12.352;2023-04-06T11:56:28;97696.34;;;14.47;23.59
74675;BME280;63200;48.810;12.352;2023-04-06T11:58:58;97692.97;;;14.64;23.19
74675;BME280;63200;48.810;12.352;2023-04-06T12:01:25;97685.81;;;14.41;24.71
74675;BME280;63200;48.810;12.352;2023-04-06T12:03:52;97690.44;;;15.41;24.49
74675;BME280;63200;48.810;12.352;2023-04-06T12:06:17;97689.22;;;15.79;25.93
74675;BME280;63200;48.810;12.352;2023-04-06T12:08:43;97691.31;;;16.54;22.54
74675;BME280;63200;48.810;12.352;2023-04-06T12:11:09;97690.25;;;16.14;21.74
74675;BME280;63200;48.810;12.352;2023-04-06T12:13:35;97686.53;;;16.19;25.02
74675;BME280;63200;48.810;12.352;2023-04-06T12:16:00;97682.03;;;16.72;21.26
74675;BME280;63200;48.810;12.352;2023-04-06T12:18:25;97669.63;;;14.03;23.82
74675;BME280;63200;48.810;12.352;2023-04-06T12:20:51;97673.75;;;14.56;24.87
74675;BME280;63200;48.810;12.352;2023-04-06T12:23:19;97642.94;;;15.60;22.76
74675;BME280;63200;48.810;12.352;2023-04-06T12:25:44;97679.41;;;14.87;24.81
74675;BME280;63200;48.810;12.352;2023-04-06T12:28:10;97675.56;;;16.10;24.63
74675;BME280;63200;48.810;12.352;2023-04-06T12:30:36;97667.16;;;15.75;22.98
74675;BME280;63200;48.810;12.352;2023-04-06T12:33:01;97665.88;;;15.50;22.70
74675;BME280;63200;48.810;12.352;2023-04-06T12:35:27;97665.06;;;16.04;22.65
74675;BME280;63200;48.810;12.352;2023-04-06T12:37:52;97660.44;;;16.88;22.26
74675;BME280;63200;48.810;12.352;2023-04-06T12:40:17;97632.69;;;17.34;22.46
74675;BME280;63200;48.810;12.352;2023-04-06T12:42:43;97650.63;;;17.13;21.92
74675;BME280;63200;48.810;12.352;2023-04-06T12:45:09;97654.69;;;15.15;21.45
74675;BME280;63200;48.810;12.352;2023-04-06T12:47:34;97652.69;;;15.52;24.94
74675;BME280;63200;48.810;12.352;2023-04-06T12:50:01;97654.06;;;15.18;23.20